sensor_id;sensor_type;location;lat;lon;timestamp;pressure;altitude;pressure_sealevel;temperature;humidity
12757;BME280;31601;48.042;12.240;2023-08-06T00:00:44;95497.41;;;17.58;74.38
12757;BME280;31601;48.042;12.240;2023-08-06T00:03:10;95490.44;;;17.52;74.33
12757;BME280;31601;48.042;12.240;2023-08-06T00:05:37;95479.25;;;17.50;74.74
12757;BME280;31601;48.042;12.240;2023-08-06T00:08:03;95493.38;;;17.33;74.70
12757;BME280;31601;48.042;12.240;2023-08-06T00:10:31;95481.59;;;17.46;74.75
12757;BME280;31601;48.042;12.240;2023-08-06T00:12:58;95486.16;;;17.51;74.75
12757;BME280;31601;48.042;12.240;2023-08-06T00:15:24;95478.22;;;17.51;74.69
12757;BME280;31601;48.042;12.240;2023-08-06T00:17:50;95485.13;;;17.52;74.69
12757;BME280;31601;48.042;12.240;2023-08-06T00:20:17;95485.91;;;17.52;74.69
12757;BME280;31601;48.042;12.240;2023-08-06T00:22:43;95492.59;;;17.55;74.68
12757;BME280;31601;48.042;12.240;2023-08-06T00:25:10;95493.13;;;17.57;74.78
12757;BME280;31601;48.042;12.240;2023-08-06T00:27:37;95495.72;;;17.52;74.83
12757;BME280;31601;48.042;12.240;2023-08-06T00:30:05;95483.06;;;17.59;74.65
12757;BME280;31601;48.042;12.240;2023-08-06T00:32:32;95479.38;;;17.60;74.62
12757;BME280;31601;48.042;12.240;2023-08-06T00:34:58;95470.56;;;17.54;74.82
12757;BME280;31601;48.042;12.240;2023-08-06T00:37:24;95478.75;;;17.53;74.90
12757;BME280;31601;48.042;12.240;2023-08-06T00:39:51;95480.91;;;17.56;74.56
12757;BME280;31601;48.042;12.240;2023-08-06T00:42:17;95482.53;;;17.57;74.84
12757;BME280;31601;48.042;12.240;2023-08-06T00:44:47;95480.41;;;17.59;74.79
12757;BME280;31601;48.042;12.240;2023-08-06T00:47:13;95477.22;;;17.57;74.80
12757;BME280;31601;48.042;12.240;2023-08-06T00:49:40;95475.00;;;17.49;75.48
12757;BME280;31601;48.042;12.240;2023-08-06T00:52:08;95475.31;;;17.30;75.76
12757;BME280;31601;48.042;12.240;2023-08-06T00:54:34;95477.03;;;17.42;75.26
12757;BME280;31601;48.042;12.240;2023-08-06T00:57:01;95476.03;;;17.48;75.34
12757;BME280;31601;48.042;12.240;2023-08-06T00:59:28;95480.31;;;17.49;75.29
12757;BME280;31601;48.042;12.240;2023-08-06T01:01:56;95485.78;;;17.42;75.36
12757;BME280;31601;48.042;12.240;2023-08-06T01:04:23;95487.81;;;17.35;75.20
12757;BME280;31601;48.042;12.240;2023-08-06T01:06:55;95494.97;;;17.17;75.54
12757;BME280;31601;48.042;12.240;2023-08-06T01:09:35;95496.19;;;17.10;76.04
12757;BME280;31601;48.042;12.240;2023-08-06T01:12:09;95492.91;;;16.86;76.91
12757;BME280;31601;48.042;12.240;2023-08-06T01:14:48;95504.97;;;16.76;77.53
12757;BME280;31601;48.042;12.240;2023-08-06T01:17:20;95503.50;;;16.86;77.55
12757;BME280;31601;48.042;12.240;2023-08-06T01:19:46;95492.91;;;16.69;77.85
12757;BME280;31601;48.042;12.240;2023-08-06T01:22:14;95489.94;;;16.82;77.42
12757;BME280;31601;48.042;12.240;2023-08-06T01:24:42;95486.44;;;16.93;77.48
12757;BME280;31601;48.042;12.240;2023-08-06T01:27:16;95493.63;;;16.81;77.13
12757;BME280;31601;48.042;12.240;2023-08-06T01:29:47;95487.72;;;16.91;77.17
12757;BME280;31601;48.042;12.240;2023-08-06T01:32:15;95475.75;;;16.88;77.11
12757;BME280;31601;48.042;12.240;2023-08-06T01:34:44;95475.19;;;17.03;76.71
12757;BME280;31601;48.042;12.240;2023-08-06T01:37:14;95464.28;;;16.99;76.70
12757;BME280;31601;48.042;12.240;2023-08-06T01:39:42;95470.13;;;17.02;76.41
12757;BME280;31601;48.042;12.240;2023-08-06T01:42:09;95475.59;;;16.95;76.50
12757;BME280;31601;48.042;12.240;2023-08-06T01:44:35;95482.09;;;17.04;76.11
12757;BME280;31601;48.042;12.240;2023-08-06T01:47:02;95479.69;;;17.03;76.02
12757;BME280;31601;48.042;12.240;2023-08-06T01:49:28;95480.88;;;17.12;75.89
12757;BME280;31601;48.042;12.240;2023-08-06T01:51:55;95478.97;;;17.07;76.04
12757;BME280;31601;48.042;12.240;2023-08-06T01:54:23;95481.84;;;17.06;75.94
12757;BME280;31601;48.042;12.240;2023-08-06T01:56:49;95475.25;;;17.08;75.67
12757;BME280;31601;48.042;12.240;2023-08-06T01:59:15;95470.06;;;16.96;75.59
12757;BME280;31601;48.042;12.240;2023-08-06T02:01:42;95479.25;;;17.11;74.99
12757;BME280;31601;48.042;12.240;2023-08-06T02:04:08;95471.31;;;17.11;75.05
12757;BME280;31601;48.042;12.240;2023-08-06T02:06:35;95467.88;;;17.10;74.99
12757;BME280;31601;48.042;12.240;2023-08-06T02:09:01;95463.84;;;17.08;75.01
12757;BME280;31601;48.042;12.240;2023-08-06T02:11:29;95468.19;;;16.97;75.56
12757;BME280;31601;48.042;12.240;2023-08-06T02:13:55;95476.53;;;17.06;75.29
12757;BME280;31601;48.042;12.240;2023-08-06T02:16:22;95477.66;;;17.10;74.98
12757;BME280;31601;48.042;12.240;2023-08-06T02:18:48;95479.09;;;17.00;74.89
12757;BME280;31601;48.042;12.240;2023-08-06T02:21:14;95477.28;;;17.01;75.15
12757;BME280;31601;48.042;12.240;2023-08-06T02:23:41;95478.00;;;16.96;75.10
12757;BME280;31601;48.042;12.240;2023-08-06T02:26:07;95467.97;;;16.98;75.04
12757;BME280;31601;48.042;12.240;2023-08-06T02:28:35;95465.00;;;16.95;75.02
12757;BME280;31601;48.042;12.240;2023-08-06T02:31:02;95457.28;;;16.76;75.43
12757;BME280;31601;48.042;12.240;2023-08-06T02:33:28;95453.06;;;16.80;75.44
12757;BME280;31601;48.042;12.240;2023-08-06T02:36:01;95449.00;;;16.73;75.53
12757;BME280;31601;48.042;12.240;2023-08-06T02:38:28;95443.84;;;16.83;75.32
12757;BME280;31601;48.042;12.240;2023-08-06T02:40:55;95446.50;;;16.83;75.08
12757;BME280;31601;48.042;12.240;2023-08-06T02:43:21;95437.63;;;16.89;74.85
12757;BME280;31601;48.042;12.240;2023-08-06T02:45:49;95435.91;;;16.83;74.91
12757;BME280;31601;48.042;12.240;2023-08-06T02:48:15;95437.19;;;16.63;75.54
12757;BME280;31601;48.042;12.240;2023-08-06T02:50:43;95436.72;;;16.50;75.89
12757;BME280;31601;48.042;12.240;2023-08-06T02:53:09;95434.97;;;16.55;75.75
12757;BME280;31601;48.042;12.240;2023-08-06T02:55:36;95433.69;;;16.58;75.67
12757;BME280;31601;48.042;12.240;2023-08-06T02:58:02;95426.47;;;16.70;75.39
12757;BME280;31601;48.042;12.240;2023-08-06T03:00:29;95421.78;;;16.60;75.58
12757;BME280;31601;48.042;12.240;2023-08-06T03:02:56;95422.44;;;16.68;75.44
12757;BME280;31601;48.042;12.240;2023-08-06T03:05:23;95423.94;;;16.63;75.49
12757;BME280;31601;48.042;12.240;2023-08-06T03:07:49;95413.94;;;16.65;75.46
12757;BME280;31601;48.042;12.240;2023-08-06T03:10:16;95416.09;;;16.69;75.51
12757;BME280;31601;48.042;12.240;2023-08-06T03:12:42;95419.84;;;16.73;75.35
12757;BME280;31601;48.042;12.240;2023-08-06T03:15:09;95410.22;;;16.67;75.53
12757;BME280;31601;48.042;12.240;2023-08-06T03:17:36;95413.22;;;16.70;75.52
12757;BME280;31601;48.042;12.240;2023-08-06T03:20:04;95404.44;;;16.70;75.44
12757;BME280;31601;48.042;12.240;2023-08-06T03:22:31;95402.38;;;16.72;75.26
12757;BME280;31601;48.042;12.240;2023-08-06T03:24:57;95399.97;;;16.70;75.27
12757;BME280;31601;48.042;12.240;2023-08-06T03:27:24;95389.69;;;16.74;75.22
12757;BME280;31601;48.042;12.240;2023-08-06T03:29:50;95389.19;;;16.77;74.96
12757;BME280;31601;48.042;12.240;2023-08-06T03:32:17;95375.31;;;16.70;74.73
12757;BME280;31601;48.042;12.240;2023-08-06T03:34:43;95378.78;;;16.70;75.18
12757;BME280;31601;48.042;12.240;2023-08-06T03:37:11;95378.38;;;16.61;75.16
12757;BME280;31601;48.042;12.240;2023-08-06T03:39:37;95366.03;;;16.67;74.96
12757;BME280;31601;48.042;12.240;2023-08-06T03:42:04;95368.69;;;16.67;74.86
12757;BME280;31601;48.042;12.240;2023-08-06T03:44:31;95378.38;;;16.61;74.95
12757;BME280;31601;48.042;12.240;2023-08-06T03:46:57;95382.78;;;16.56;75.23
12757;BME280;31601;48.042;12.240;2023-08-06T03:49:24;95385.44;;;16.56;75.10
12757;BME280;31601;48.042;12.240;2023-08-06T03:51:50;95390.38;;;16.47;75.12
12757;BME280;31601;48.042;12.240;2023-08-06T03:54:18;95388.50;;;16.47;74.85
12757;BME280;31601;48.042;12.240;2023-08-06T03:56:44;95385.94;;;16.36;75.08
12757;BME280;31601;48.042;12.240;2023-08-06T03:59:11;95395.50;;;16.37;75.13
12757;BME280;31601;48.042;12.240;2023-08-06T04:01:37;95407.19;;;16.24;75.11
12757;BME280;31601;48.042;12.240;2023-08-06T04:04:04;95398.59;;;16.17;75.30
12757;BME280;31601;48.042;12.240;2023-08-06T04:06:30;95399.50;;;16.22;75.07
12757;BME280;31601;48.042;12.240;2023-08-06T04:08:56;95395.53;;;16.08;75.63
12757;BME280;31601;48.042;12.240;2023-08-06T04:11:24;95397.72;;;16.11;75.66
12757;BME280;31601;48.042;12.240;2023-08-06T04:13:50;95398.59;;;16.00;75.84
12757;BME280;31601;48.042;12.240;2023-08-06T04:16:17;95396.91;;;16.10;75.39
12757;BME280;31601;48.042;12.240;2023-08-06T04:18:43;95394.69;;;16.19;75.33
12757;BME280;31601;48.042;12.240;2023-08-06T04:21:11;95389.06;;;16.16;75.56
12757;BME280;31601;48.042;12.240;2023-08-06T04:23:37;95397.81;;;16.16;75.75
12757;BME280;31601;48.042;12.240;2023-08-06T04:26:03;95389.72;;;16.23;75.44
12757;BME280;31601;48.042;12.240;2023-08-06T04:28:31;95391.56;;;16.22;75.41
12757;BME280;31601;48.042;12.240;2023-08-06T04:30:58;95389.22;;;16.26;75.24
12757;BME280;31601;48.042;12.240;2023-08-06T04:33:25;95394.34;;;16.33;75.10
12757;BME280;31601;48.042;12.240;2023-08-06T04:35:54;95391.22;;;16.36;74.84
12757;BME280;31601;48.042;12.240;2023-08-06T04:38:20;95398.19;;;16.42;74.75
12757;BME280;31601;48.042;12.240;2023-08-06T04:40:47;95391.41;;;16.46;74.59
12757;BME280;31601;48.042;12.240;2023-08-06T04:43:13;95394.34;;;16.50;74.35
12757;BME280;31601;48.042;12.240;2023-08-06T04:45:46;95398.69;;;16.56;74.21
12757;BME280;31601;48.042;12.240;2023-08-06T04:48:13;95400.06;;;16.58;74.08
12757;BME280;31601;48.042;12.240;2023-08-06T04:50:43;95399.31;;;16.63;74.21
12757;BME280;31601;48.042;12.240;2023-08-06T04:53:09;95400.06;;;16.58;74.01
12757;BME280;31601;48.042;12.240;2023-08-06T04:55:36;95406.97;;;16.59;74.20
12757;BME280;31601;48.042;12.240;2023-08-06T04:58:02;95415.38;;;16.56;74.38
12757;BME280;31601;48.042;12.240;2023-08-06T05:00:29;95414.66;;;16.61;74.18
12757;BME280;31601;48.042;12.240;2023-08-06T05:02:56;95418.66;;;16.46;74.41
12757;BME280;31601;48.042;12.240;2023-08-06T05:05:23;95418.75;;;16.52;74.32
12757;BME280;31601;48.042;12.240;2023-08-06T05:07:49;95421.00;;;16.60;74.17
12757;BME280;31601;48.042;12.240;2023-08-06T05:10:16;95424.44;;;16.60;74.23
12757;BME280;31601;48.042;12.240;2023-08-06T05:12:42;95425.03;;;16.62;73.94
12757;BME280;31601;48.042;12.240;2023-08-06T05:15:09;95425.25;;;16.61;73.95
12757;BME280;31601;48.042;12.240;2023-08-06T05:17:35;95425.50;;;16.59;73.96
12757;BME280;31601;48.042;12.240;2023-08-06T05:20:04;95428.69;;;16.61;73.86
12757;BME280;31601;48.042;12.240;2023-08-06T05:22:30;95423.88;;;16.58;73.80
12757;BME280;31601;48.042;12.240;2023-08-06T05:24:57;95427.56;;;16.57;73.76
12757;BME280;31601;48.042;12.240;2023-08-06T05:27:23;95417.56;;;16.59;73.89
12757;BME280;31601;48.042;12.240;2023-08-06T05:29:50;95419.47;;;16.64;73.94
12757;BME280;31601;48.042;12.240;2023-08-06T05:32:16;95416.50;;;16.60;74.08
12757;BME280;31601;48.042;12.240;2023-08-06T05:34:42;95411.06;;;16.67;73.91
12757;BME280;31601;48.042;12.240;2023-08-06T05:37:10;95406.56;;;16.68;73.79
12757;BME280;31601;48.042;12.240;2023-08-06T05:39:37;95408.97;;;16.52;73.94
12757;BME280;31601;48.042;12.240;2023-08-06T05:42:04;95414.44;;;16.62;73.77
12757;BME280;31601;48.042;12.240;2023-08-06T05:44:30;95412.09;;;16.66;73.80
12757;BME280;31601;48.042;12.240;2023-08-06T05:46:57;95408.22;;;16.74;73.75
12757;BME280;31601;48.042;12.240;2023-08-06T05:49:23;95405.09;;;16.77;73.46
12757;BME280;31601;48.042;12.240;2023-08-06T05:51:49;95405.66;;;16.79;73.33
12757;BME280;31601;48.042;12.240;2023-08-06T05:54:19;95409.19;;;16.85;73.03
12757;BME280;31601;48.042;12.240;2023-08-06T05:56:46;95409.41;;;16.83;73.23
12757;BME280;31601;48.042;12.240;2023-08-06T05:59:12;95414.31;;;16.91;73.12
12757;BME280;31601;48.042;12.240;2023-08-06T06:01:38;95419.13;;;16.94;73.13
12757;BME280;31601;48.042;12.240;2023-08-06T06:04:05;95418.41;;;16.99;73.20
12757;BME280;31601;48.042;12.240;2023-08-06T06:06:31;95411.34;;;17.05;72.95
12757;BME280;31601;48.042;12.240;2023-08-06T06:08:58;95416.47;;;16.94;73.25
12757;BME280;31601;48.042;12.240;2023-08-06T06:11:25;95403.63;;;17.03;72.94
12757;BME280;31601;48.042;12.240;2023-08-06T06:13:52;95405.00;;;17.06;73.02
12757;BME280;31601;48.042;12.240;2023-08-06T06:16:18;95407.16;;;17.09;72.90
12757;BME280;31601;48.042;12.240;2023-08-06T06:18:45;95412.28;;;17.15;72.94
12757;BME280;31601;48.042;12.240;2023-08-06T06:21:11;95412.09;;;17.22;72.94
12757;BME280;31601;48.042;12.240;2023-08-06T06:23:37;95410.84;;;17.30;72.62
12757;BME280;31601;48.042;12.240;2023-08-06T06:26:04;95407.06;;;17.43;72.84
12757;BME280;31601;48.042;12.240;2023-08-06T06:28:32;95405.66;;;17.62;72.79
12757;BME280;31601;48.042;12.240;2023-08-06T06:31:00;95408.69;;;17.71;72.12
12757;BME280;31601;48.042;12.240;2023-08-06T06:33:27;95409.88;;;17.85;71.93
12757;BME280;31601;48.042;12.240;2023-08-06T06:35:53;95409.03;;;18.02;71.93
12757;BME280;31601;48.042;12.240;2023-08-06T06:38:19;95408.28;;;18.06;71.50
12757;BME280;31601;48.042;12.240;2023-08-06T06:40:53;95416.41;;;18.27;71.05
12757;BME280;31601;48.042;12.240;2023-08-06T06:43:19;95413.63;;;18.44;70.59
12757;BME280;31601;48.042;12.240;2023-08-06T06:45:52;95415.59;;;18.54;69.99
12757;BME280;31601;48.042;12.240;2023-08-06T06:48:18;95410.66;;;18.68;69.96
12757;BME280;31601;48.042;12.240;2023-08-06T06:50:47;95418.38;;;18.74;69.42
12757;BME280;31601;48.042;12.240;2023-08-06T06:53:13;95407.13;;;18.62;67.92
12757;BME280;31601;48.042;12.240;2023-08-06T06:55:39;95416.31;;;18.82;67.97
12757;BME280;31601;48.042;12.240;2023-08-06T06:58:06;95425.22;;;18.65;67.26
12757;BME280;31601;48.042;12.240;2023-08-06T07:00:32;95423.22;;;18.83;67.60
12757;BME280;31601;48.042;12.240;2023-08-06T07:03:02;95433.69;;;18.94;66.92
12757;BME280;31601;48.042;12.240;2023-08-06T07:05:29;95436.19;;;19.11;66.80
12757;BME280;31601;48.042;12.240;2023-08-06T07:07:55;95429.16;;;19.38;66.60
12757;BME280;31601;48.042;12.240;2023-08-06T07:10:22;95423.91;;;19.53;65.93
12757;BME280;31601;48.042;12.240;2023-08-06T07:12:48;95422.06;;;19.59;64.80
12757;BME280;31601;48.042;12.240;2023-08-06T07:15:15;95413.78;;;19.55;63.94
12757;BME280;31601;48.042;12.240;2023-08-06T07:17:42;95411.69;;;19.67;63.06
12757;BME280;31601;48.042;12.240;2023-08-06T07:20:10;95413.81;;;19.65;62.09
12757;BME280;31601;48.042;12.240;2023-08-06T07:22:37;95419.16;;;19.71;63.34
12757;BME280;31601;48.042;12.240;2023-08-06T07:25:04;95420.38;;;19.42;62.30
12757;BME280;31601;48.042;12.240;2023-08-06T07:27:32;95409.34;;;19.76;62.45
12757;BME280;31601;48.042;12.240;2023-08-06T07:29:59;95407.25;;;19.89;62.08
12757;BME280;31601;48.042;12.240;2023-08-06T07:32:25;95405.13;;;19.91;61.45
12757;BME280;31601;48.042;12.240;2023-08-06T07:34:53;95405.72;;;20.18;60.15
12757;BME280;31601;48.042;12.240;2023-08-06T07:37:26;95394.81;;;20.87;58.97
12757;BME280;31601;48.042;12.240;2023-08-06T07:39:53;95388.34;;;21.03;57.39
12757;BME280;31601;48.042;12.240;2023-08-06T07:42:20;95376.44;;;20.54;57.71
12757;BME280;31601;48.042;12.240;2023-08-06T07:44:51;95381.22;;;20.57;58.10
12757;BME280;31601;48.042;12.240;2023-08-06T07:47:17;95383.34;;;20.81;57.81
12757;BME280;31601;48.042;12.240;2023-08-06T07:49:44;95391.88;;;20.52;56.88
12757;BME280;31601;48.042;12.240;2023-08-06T07:52:10;95386.53;;;20.52;58.27
12757;BME280;31601;48.042;12.240;2023-08-06T07:54:38;95388.69;;;20.50;57.93
12757;BME280;31601;48.042;12.240;2023-08-06T07:57:05;95393.22;;;20.34;57.92
12757;BME280;31601;48.042;12.240;2023-08-06T07:59:32;95395.81;;;19.93;56.50
12757;BME280;31601;48.042;12.240;2023-08-06T08:01:58;95391.06;;;19.27;56.80
12757;BME280;31601;48.042;12.240;2023-08-06T08:04:25;95392.63;;;19.18;58.81
12757;BME280;31601;48.042;12.240;2023-08-06T08:06:51;95396.28;;;19.06;58.63
12757;BME280;31601;48.042;12.240;2023-08-06T08:09:18;95395.81;;;19.20;58.83
12757;BME280;31601;48.042;12.240;2023-08-06T08:11:45;95386.81;;;18.46;58.26
12757;BME280;31601;48.042;12.240;2023-08-06T08:14:12;95394.47;;;17.82;59.81
12757;BME280;31601;48.042;12.240;2023-08-06T08:16:38;95401.22;;;17.90;59.90
12757;BME280;31601;48.042;12.240;2023-08-06T08:19:05;95395.72;;;17.97;58.99
12757;BME280;31601;48.042;12.240;2023-08-06T08:21:31;95395.19;;;17.72;59.26
12757;BME280;31601;48.042;12.240;2023-08-06T08:23:59;95388.50;;;17.92;59.25
12757;BME280;31601;48.042;12.240;2023-08-06T08:26:26;95387.78;;;18.29;59.42
12757;BME280;31601;48.042;12.240;2023-08-06T08:28:55;95377.28;;;18.45;59.03
12757;BME280;31601;48.042;12.240;2023-08-06T08:31:22;95387.41;;;18.53;58.11
12757;BME280;31601;48.042;12.240;2023-08-06T08:33:48;95378.19;;;18.28;56.88
12757;BME280;31601;48.042;12.240;2023-08-06T08:36:15;95372.88;;;18.60;57.42
12757;BME280;31601;48.042;12.240;2023-08-06T08:38:41;95382.19;;;18.63;56.77
12757;BME280;31601;48.042;12.240;2023-08-06T08:41:09;95374.38;;;18.89;58.71
12757;BME280;31601;48.042;12.240;2023-08-06T08:43:36;95376.06;;;19.05;58.39
12757;BME280;31601;48.042;12.240;2023-08-06T08:46:05;95375.03;;;19.11;58.11
12757;BME280;31601;48.042;12.240;2023-08-06T08:48:34;95375.69;;;19.44;57.13
12757;BME280;31601;48.042;12.240;2023-08-06T08:51:02;95376.31;;;19.72;56.58
12757;BME280;31601;48.042;12.240;2023-08-06T08:53:29;95362.31;;;20.28;55.27
12757;BME280;31601;48.042;12.240;2023-08-06T08:55:56;95368.97;;;20.26;55.22
12757;BME280;31601;48.042;12.240;2023-08-06T08:58:23;95372.16;;;20.48;55.20
12757;BME280;31601;48.042;12.240;2023-08-06T09:00:50;95367.03;;;21.03;54.70
12757;BME280;31601;48.042;12.240;2023-08-06T09:03:18;95365.91;;;21.20;54.28
12757;BME280;31601;48.042;12.240;2023-08-06T09:05:47;95365.84;;;21.35;53.04
12757;BME280;31601;48.042;12.240;2023-08-06T09:08:17;95358.38;;;21.87;51.87
12757;BME280;31601;48.042;12.240;2023-08-06T09:10:43;95357.72;;;22.06;51.41
12757;BME280;31601;48.042;12.240;2023-08-06T09:13:10;95343.25;;;22.12;50.60
12757;BME280;31601;48.042;12.240;2023-08-06T09:15:37;95356.47;;;21.43;50.87
12757;BME280;31601;48.042;12.240;2023-08-06T09:18:09;95358.81;;;20.84;52.45
12757;BME280;31601;48.042;12.240;2023-08-06T09:20:37;95359.66;;;20.44;54.02
12757;BME280;31601;48.042;12.240;2023-08-06T09:23:07;95362.81;;;20.04;54.43
12757;BME280;31601;48.042;12.240;2023-08-06T09:25:34;95356.69;;;19.94;54.58
12757;BME280;31601;48.042;12.240;2023-08-06T09:28:03;95368.03;;;19.58;55.70
12757;BME280;31601;48.042;12.240;2023-08-06T09:30:30;95362.88;;;19.26;56.93
12757;BME280;31601;48.042;12.240;2023-08-06T09:32:57;95368.41;;;18.71;57.91
12757;BME280;31601;48.042;12.240;2023-08-06T09:35:23;95375.59;;;18.71;58.37
12757;BME280;31601;48.042;12.240;2023-08-06T09:37:51;95368.94;;;18.68;57.63
12757;BME280;31601;48.042;12.240;2023-08-06T09:40:25;95368.28;;;18.88;56.37
12757;BME280;31601;48.042;12.240;2023-08-06T09:42:52;95376.91;;;18.73;55.86
12757;BME280;31601;48.042;12.240;2023-08-06T09:45:18;95367.06;;;19.06;56.60
12757;BME280;31601;48.042;12.240;2023-08-06T09:47:47;95373.88;;;18.92;56.66
12757;BME280;31601;48.042;12.240;2023-08-06T09:50:15;95369.31;;;19.40;55.93
12757;BME280;31601;48.042;12.240;2023-08-06T09:52:42;95378.44;;;19.70;54.28
12757;BME280;31601;48.042;12.240;2023-08-06T09:55:11;95374.69;;;19.66;53.65
12757;BME280;31601;48.042;12.240;2023-08-06T09:57:38;95382.75;;;18.70;55.43
12757;BME280;31601;48.042;12.240;2023-08-06T10:00:06;95379.34;;;18.37;55.82
12757;BME280;31601;48.042;12.240;2023-08-06T10:02:35;95378.41;;;18.54;54.81
12757;BME280;31601;48.042;12.240;2023-08-06T10:05:04;95380.56;;;18.57;55.67
12757;BME280;31601;48.042;12.240;2023-08-06T10:07:31;95384.38;;;18.06;56.19
12757;BME280;31601;48.042;12.240;2023-08-06T10:09:58;95377.22;;;18.39;56.89
12757;BME280;31601;48.042;12.240;2023-08-06T10:12:28;95388.34;;;18.36;58.01
12757;BME280;31601;48.042;12.240;2023-08-06T10:14:59;95383.28;;;18.02;57.00
12757;BME280;31601;48.042;12.240;2023-08-06T10:17:28;95387.84;;;17.80;57.46
12757;BME280;31601;48.042;12.240;2023-08-06T10:19:54;95390.19;;;18.03;57.86
12757;BME280;31601;48.042;12.240;2023-08-06T10:22:21;95396.63;;;17.85;56.94
12757;BME280;31601;48.042;12.240;2023-08-06T10:24:49;95399.66;;;18.21;58.08
12757;BME280;31601;48.042;12.240;2023-08-06T10:27:20;95385.44;;;18.05;59.03
12757;BME280;31601;48.042;12.240;2023-08-06T10:29:48;95383.66;;;18.49;58.71
12757;BME280;31601;48.042;12.240;2023-08-06T10:32:15;95378.44;;;18.59;57.60
12757;BME280;31601;48.042;12.240;2023-08-06T10:34:56;95381.66;;;19.04;56.76
12757;BME280;31601;48.042;12.240;2023-08-06T10:37:23;95377.31;;;19.50;54.02
12757;BME280;31601;48.042;12.240;2023-08-06T10:39:50;95380.47;;;19.37;52.24
12757;BME280;31601;48.042;12.240;2023-08-06T10:42:27;95379.53;;;19.74;52.81
12757;BME280;31601;48.042;12.240;2023-08-06T10:45:16;95378.72;;;19.74;53.15
12757;BME280;31601;48.042;12.240;2023-08-06T10:47:43;95380.38;;;19.17;52.91
12757;BME280;31601;48.042;12.240;2023-08-06T10:50:11;95382.31;;;19.31;52.29
12757;BME280;31601;48.042;12.240;2023-08-06T10:52:38;95385.75;;;19.27;52.19
12757;BME280;31601;48.042;12.240;2023-08-06T10:55:05;95426.50;;;18.57;52.63
12757;BME280;31601;48.042;12.240;2023-08-06T10:57:32;95395.56;;;18.78;53.37
12757;BME280;31601;48.042;12.240;2023-08-06T10:59:58;95398.69;;;18.70;53.15
12757;BME280;31601;48.042;12.240;2023-08-06T11:02:26;95394.69;;;19.10;51.98
12757;BME280;31601;48.042;12.240;2023-08-06T11:04:53;95393.25;;;18.87;52.03
12757;BME280;31601;48.042;12.240;2023-08-06T11:07:19;95401.78;;;18.89;51.84
12757;BME280;31601;48.042;12.240;2023-08-06T11:09:50;95399.44;;;18.60;53.21
12757;BME280;31601;48.042;12.240;2023-08-06T11:12:18;95393.78;;;18.52;53.29
12757;BME280;31601;48.042;12.240;2023-08-06T11:14:49;95401.53;;;18.96;53.17
12757;BME280;31601;48.042;12.240;2023-08-06T11:17:16;95399.34;;;19.36;51.96
12757;BME280;31601;48.042;12.240;2023-08-06T11:19:44;95400.00;;;19.63;51.13
12757;BME280;31601;48.042;12.240;2023-08-06T11:22:11;95407.41;;;19.51;51.62
12757;BME280;31601;48.042;12.240;2023-08-06T11:24:37;95409.94;;;19.25;51.50
12757;BME280;31601;48.042;12.240;2023-08-06T11:27:11;95417.13;;;18.45;55.16
12757;BME280;31601;48.042;12.240;2023-08-06T11:29:37;95425.38;;;18.21;55.91
12757;BME280;31601;48.042;12.240;2023-08-06T11:32:04;95421.41;;;18.18;56.10
12757;BME280;31601;48.042;12.240;2023-08-06T11:34:31;95424.38;;;18.27;55.22
12757;BME280;31601;48.042;12.240;2023-08-06T11:36:58;95430.88;;;17.87;54.92
12757;BME280;31601;48.042;12.240;2023-08-06T11:39:25;95419.09;;;18.00;54.86
12757;BME280;31601;48.042;12.240;2023-08-06T11:41:51;95423.94;;;18.35;54.99
12757;BME280;31601;48.042;12.240;2023-08-06T11:44:19;95425.03;;;18.39;54.65
12757;BME280;31601;48.042;12.240;2023-08-06T11:46:52;95422.44;;;18.50;53.29
12757;BME280;31601;48.042;12.240;2023-08-06T11:52:09;95428.09;;;19.39;52.30
12757;BME280;31601;48.042;12.240;2023-08-06T11:54:36;95420.50;;;19.68;51.54
12757;BME280;31601;48.042;12.240;2023-08-06T11:57:03;95421.19;;;19.43;50.68
12757;BME280;31601;48.042;12.240;2023-08-06T11:59:31;95431.41;;;19.13;51.97
12757;BME280;31601;48.042;12.240;2023-08-06T12:01:57;95422.94;;;18.79;52.16
12757;BME280;31601;48.042;12.240;2023-08-06T12:04:24;95414.38;;;18.34;53.13
12757;BME280;31601;48.042;12.240;2023-08-06T12:06:50;95424.16;;;18.01;55.01
12757;BME280;31601;48.042;12.240;2023-08-06T12:09:19;95436.03;;;17.94;55.61
12757;BME280;31601;48.042;12.240;2023-08-06T12:11:46;95442.97;;;18.27;55.18
12757;BME280;31601;48.042;12.240;2023-08-06T12:14:12;95440.88;;;18.29;54.18
12757;BME280;31601;48.042;12.240;2023-08-06T12:16:39;95439.75;;;18.52;53.13
12757;BME280;31601;48.042;12.240;2023-08-06T12:19:06;95432.28;;;18.49;53.10
12757;BME280;31601;48.042;12.240;2023-08-06T12:21:32;95437.47;;;18.34;53.75
12757;BME280;31601;48.042;12.240;2023-08-06T12:23:58;95455.91;;;17.91;55.46
12757;BME280;31601;48.042;12.240;2023-08-06T12:26:26;95446.47;;;18.33;55.32
12757;BME280;31601;48.042;12.240;2023-08-06T12:28:53;95456.19;;;18.22;56.17
12757;BME280;31601;48.042;12.240;2023-08-06T12:31:20;95453.19;;;18.40;55.98
12757;BME280;31601;48.042;12.240;2023-08-06T12:33:46;95431.31;;;18.28;55.11
12757;BME280;31601;48.042;12.240;2023-08-06T12:36:13;95442.47;;;18.95;54.14
12757;BME280;31601;48.042;12.240;2023-08-06T12:38:39;95444.31;;;19.37;53.69
12757;BME280;31601;48.042;12.240;2023-08-06T12:41:06;95452.75;;;19.29;53.33
12757;BME280;31601;48.042;12.240;2023-08-06T12:43:34;95446.75;;;19.01;54.26
12757;BME280;31601;48.042;12.240;2023-08-06T12:46:00;95445.69;;;18.97;55.52
12757;BME280;31601;48.042;12.240;2023-08-06T12:48:26;95447.53;;;18.64;54.73
12757;BME280;31601;48.042;12.240;2023-08-06T12:50:53;95453.31;;;18.88;54.45
12757;BME280;31601;48.042;12.240;2023-08-06T12:53:20;95462.78;;;18.74;54.93